VOZ091 YMML-WADD
Flight info
| Callsign | VOZ091 |
|---|---|
| Flight time | N/A |
| Altitude | 36000 |
| Route | PEDNI H345 AD T20 RUSAD/N0459F380 T20 BOPLO B349 KALIV |
| Aircraft | B38M/M-SADE3GHIJ4J7M3RWZ/LB1D1 |
Departure
| Time | N/A |
|---|---|
| Airport | Melbourne Airport (YMML) |
Arrival
| Time | 2026-05-05 13:42 |
|---|---|
| Airport | Denpasar I Gusti Ngurah Rai International Airport (WADD) |
| Time | Latitude | Longitude | Altitude | Speed | Heading |
|---|---|---|---|---|---|
| 2026-05-05 12:31 | -14.13298 | 118.77936 | 35980 ft | 392 kts | 313° |
| 2026-05-05 12:32 | -14.09151 | 118.74276 | 35978 ft | 392 kts | 313° |
| 2026-05-05 12:32 | -14.05031 | 118.70639 | 35979 ft | 392 kts | 313° |
| 2026-05-05 12:33 | -14.00878 | 118.66976 | 35977 ft | 392 kts | 313° |
| 2026-05-05 12:33 | -13.96716 | 118.63307 | 35979 ft | 393 kts | 313° |
| 2026-05-05 12:34 | -13.92579 | 118.59662 | 35978 ft | 393 kts | 313° |
| 2026-05-05 12:34 | -13.88415 | 118.55995 | 35980 ft | 393 kts | 313° |
| 2026-05-05 12:35 | -13.84286 | 118.52360 | 36312 ft | 391 kts | 313° |
| 2026-05-05 12:35 | -13.82216 | 118.50539 | 36526 ft | 391 kts | 313° |
| 2026-05-05 12:35 | -13.80843 | 118.49331 | 36650 ft | 390 kts | 313° |
| 2026-05-05 12:36 | -13.78106 | 118.46922 | 36910 ft | 390 kts | 313° |
| 2026-05-05 12:36 | -13.76047 | 118.45112 | 37099 ft | 389 kts | 313° |
| 2026-05-05 12:36 | -13.73982 | 118.43298 | 37279 ft | 389 kts | 313° |
| 2026-05-05 12:36 | -13.71921 | 118.41486 | 37441 ft | 388 kts | 313° |
| 2026-05-05 12:37 | -13.70556 | 118.40286 | 37551 ft | 388 kts | 313° |
| 2026-05-05 12:37 | -13.67831 | 118.37893 | 37753 ft | 388 kts | 313° |
| 2026-05-05 12:37 | -13.66442 | 118.36672 | 37855 ft | 388 kts | 313° |
| 2026-05-05 12:37 | -13.64414 | 118.34891 | 37969 ft | 388 kts | 313° |
| 2026-05-05 12:38 | -13.60260 | 118.31245 | 37976 ft | 394 kts | 313° |
| 2026-05-05 12:38 | -13.56075 | 118.27573 | 37972 ft | 401 kts | 313° |
| 2026-05-05 12:39 | -13.51783 | 118.23809 | 37971 ft | 408 kts | 313° |
| 2026-05-05 12:39 | -13.47446 | 118.20008 | 37973 ft | 415 kts | 313° |
| 2026-05-05 12:40 | -13.43035 | 118.16143 | 37971 ft | 417 kts | 313° |
| 2026-05-05 12:40 | -13.38607 | 118.12266 | 37973 ft | 416 kts | 313° |
| 2026-05-05 12:41 | -13.34218 | 118.08424 | 37970 ft | 416 kts | 313° |
| 2026-05-05 12:41 | -13.29801 | 118.04561 | 37976 ft | 416 kts | 313° |
| 2026-05-05 12:42 | -13.25401 | 118.00713 | 37981 ft | 416 kts | 313° |
| 2026-05-05 12:42 | -13.20980 | 117.96849 | 37975 ft | 416 kts | 313° |
| 2026-05-05 12:43 | -13.16588 | 117.93013 | 37974 ft | 417 kts | 313° |
| 2026-05-05 12:43 | -13.12162 | 117.89149 | 37972 ft | 417 kts | 314° |
| 2026-05-05 12:44 | -13.07738 | 117.85289 | 37974 ft | 417 kts | 314° |
| 2026-05-05 12:44 | -13.03328 | 117.81442 | 37971 ft | 417 kts | 314° |
| 2026-05-05 12:45 | -12.98920 | 117.77598 | 37967 ft | 417 kts | 314° |
| 2026-05-05 12:45 | -12.94488 | 117.73736 | 37967 ft | 418 kts | 314° |
| 2026-05-05 12:46 | -12.90069 | 117.69888 | 37971 ft | 418 kts | 314° |
| 2026-05-05 12:46 | -12.85616 | 117.66011 | 37965 ft | 418 kts | 314° |
| 2026-05-05 12:47 | -12.81175 | 117.62148 | 37971 ft | 418 kts | 314° |
| 2026-05-05 12:47 | -12.76763 | 117.58310 | 37967 ft | 418 kts | 314° |
| 2026-05-05 12:48 | -12.72315 | 117.54443 | 37970 ft | 418 kts | 314° |
| 2026-05-05 12:48 | -12.67872 | 117.50583 | 37970 ft | 418 kts | 314° |
| 2026-05-05 12:49 | -12.63450 | 117.46743 | 37969 ft | 418 kts | 314° |
| 2026-05-05 12:49 | -12.58997 | 117.42877 | 37966 ft | 419 kts | 315° |
| 2026-05-05 12:50 | -12.54569 | 117.39035 | 37966 ft | 419 kts | 315° |
| 2026-05-05 12:50 | -12.50141 | 117.35194 | 37964 ft | 418 kts | 315° |
| 2026-05-05 12:51 | -12.45692 | 117.31338 | 37964 ft | 418 kts | 315° |
| 2026-05-05 12:51 | -12.41246 | 117.27485 | 37965 ft | 418 kts | 315° |
| 2026-05-05 12:52 | -12.36836 | 117.23665 | 37966 ft | 418 kts | 315° |
| 2026-05-05 12:52 | -12.32397 | 117.19822 | 37968 ft | 417 kts | 315° |
| 2026-05-05 12:53 | -12.27956 | 117.15979 | 37967 ft | 417 kts | 315° |
| 2026-05-05 12:53 | -12.23545 | 117.12163 | 37967 ft | 417 kts | 315° |
| 2026-05-05 12:54 | -12.16886 | 117.06407 | 37964 ft | 417 kts | 315° |
| 2026-05-05 12:55 | -12.12482 | 117.02602 | 37961 ft | 417 kts | 315° |
| 2026-05-05 12:55 | -12.08048 | 116.98773 | 37963 ft | 416 kts | 315° |
| 2026-05-05 12:56 | -12.03640 | 116.94968 | 37962 ft | 416 kts | 315° |
| 2026-05-05 12:56 | -11.99071 | 116.91312 | 37950 ft | 421 kts | 327° |
| 2026-05-05 12:57 | -11.93921 | 116.88475 | 37958 ft | 423 kts | 326° |
| 2026-05-05 12:57 | -11.88732 | 116.85589 | 37963 ft | 423 kts | 327° |
| 2026-05-05 12:58 | -11.83571 | 116.82729 | 37964 ft | 423 kts | 327° |
| 2026-05-05 12:58 | -11.78379 | 116.79855 | 37966 ft | 423 kts | 327° |
| 2026-05-05 12:59 | -11.73223 | 116.77002 | 37963 ft | 423 kts | 327° |
| 2026-05-05 12:59 | -11.68034 | 116.74131 | 37962 ft | 423 kts | 327° |
| 2026-05-05 13:00 | -11.60263 | 116.69835 | 37967 ft | 426 kts | 327° |
| 2026-05-05 13:01 | -11.52347 | 116.65462 | 37962 ft | 438 kts | 327° |
| 2026-05-05 13:01 | -11.49653 | 116.63973 | 37962 ft | 441 kts | 327° |
| 2026-05-05 13:01 | -11.44231 | 116.60980 | 37966 ft | 448 kts | 327° |
| 2026-05-05 13:02 | -11.38727 | 116.57943 | 37964 ft | 449 kts | 327° |
| 2026-05-05 13:02 | -11.33228 | 116.54910 | 37959 ft | 449 kts | 327° |
| 2026-05-05 13:03 | -11.27732 | 116.51879 | 37921 ft | 448 kts | 327° |
| 2026-05-05 13:03 | -11.25004 | 116.50376 | 37340 ft | 445 kts | 328° |
| 2026-05-05 13:03 | -11.22294 | 116.48883 | 36907 ft | 439 kts | 328° |
| 2026-05-05 13:04 | -11.19653 | 116.47428 | 36455 ft | 434 kts | 328° |
| 2026-05-05 13:04 | -11.16990 | 116.45961 | 35925 ft | 432 kts | 328° |
| 2026-05-05 13:04 | -11.14347 | 116.44506 | 35399 ft | 430 kts | 328° |
| 2026-05-05 13:04 | -11.11717 | 116.43057 | 34879 ft | 429 kts | 328° |
| 2026-05-05 13:05 | -11.09093 | 116.41613 | 34375 ft | 427 kts | 328° |
| 2026-05-05 13:05 | -11.06481 | 116.40176 | 33856 ft | 426 kts | 328° |
| 2026-05-05 13:05 | -11.03906 | 116.38758 | 33288 ft | 424 kts | 328° |
| 2026-05-05 13:05 | -11.01313 | 116.37332 | 32788 ft | 422 kts | 328° |
| 2026-05-05 13:06 | -10.98736 | 116.35914 | 32295 ft | 419 kts | 328° |
| 2026-05-05 13:06 | -10.96155 | 116.34515 | 31755 ft | 418 kts | 329° |
| 2026-05-05 13:06 | -10.93607 | 116.33150 | 31208 ft | 418 kts | 329° |
| 2026-05-05 13:06 | -10.91037 | 116.31771 | 30762 ft | 415 kts | 329° |
| 2026-05-05 13:07 | -10.88491 | 116.30404 | 30311 ft | 413 kts | 329° |
| 2026-05-05 13:07 | -10.85952 | 116.29042 | 29805 ft | 411 kts | 329° |
| 2026-05-05 13:07 | -10.83418 | 116.27682 | 29279 ft | 410 kts | 329° |
| 2026-05-05 13:07 | -10.80897 | 116.26329 | 28811 ft | 406 kts | 329° |
| 2026-05-05 13:08 | -10.78403 | 116.24990 | 28372 ft | 403 kts | 329° |
| 2026-05-05 13:08 | -10.75962 | 116.23681 | 27935 ft | 400 kts | 329° |
| 2026-05-05 13:08 | -10.73498 | 116.22359 | 27501 ft | 397 kts | 330° |
| 2026-05-05 13:08 | -10.71055 | 116.21049 | 27071 ft | 394 kts | 330° |
| 2026-05-05 13:09 | -10.68637 | 116.19752 | 26757 ft | 389 kts | 330° |
| 2026-05-05 13:09 | -10.66297 | 116.18497 | 26621 ft | 387 kts | 330° |
| 2026-05-05 13:09 | -10.63852 | 116.17187 | 26225 ft | 404 kts | 330° |
| 2026-05-05 13:09 | -10.61346 | 116.15844 | 25759 ft | 409 kts | 330° |
| 2026-05-05 13:10 | -10.58810 | 116.14485 | 25262 ft | 411 kts | 331° |
| 2026-05-05 13:10 | -10.56279 | 116.13129 | 24760 ft | 409 kts | 331° |
| 2026-05-05 13:10 | -10.53787 | 116.11795 | 24262 ft | 408 kts | 331° |
| 2026-05-05 13:10 | -10.51279 | 116.10452 | 23768 ft | 407 kts | 332° |
| 2026-05-05 13:11 | -10.48763 | 116.09105 | 23209 ft | 407 kts | 332° |
| 2026-05-05 13:11 | -10.46410 | 116.07538 | 22782 ft | 401 kts | 317° |
| 2026-05-05 13:11 | -10.44666 | 116.05386 | 22581 ft | 392 kts | 300° |
| 2026-05-05 13:11 | -10.43422 | 116.02911 | 22423 ft | 394 kts | 296° |
| 2026-05-05 13:12 | -10.42250 | 116.00421 | 22219 ft | 394 kts | 295° |
| 2026-05-05 13:12 | -10.41093 | 115.97901 | 22024 ft | 393 kts | 295° |
| 2026-05-05 13:12 | -10.39952 | 115.95377 | 21817 ft | 392 kts | 294° |
| 2026-05-05 13:12 | -10.38824 | 115.92859 | 21615 ft | 390 kts | 294° |
| 2026-05-05 13:13 | -10.37703 | 115.90346 | 21414 ft | 389 kts | 294° |
| 2026-05-05 13:13 | -10.36588 | 115.87842 | 21208 ft | 388 kts | 294° |
| 2026-05-05 13:13 | -10.35492 | 115.85382 | 21023 ft | 386 kts | 294° |
| 2026-05-05 13:13 | -10.34383 | 115.82893 | 20816 ft | 385 kts | 294° |
| 2026-05-05 13:14 | -10.33277 | 115.80411 | 20616 ft | 383 kts | 294° |
| 2026-05-05 13:14 | -10.32179 | 115.77945 | 20422 ft | 382 kts | 294° |
| 2026-05-05 13:14 | -10.31085 | 115.75491 | 20221 ft | 380 kts | 294° |
| 2026-05-05 13:14 | -10.30008 | 115.73075 | 20034 ft | 379 kts | 294° |
| 2026-05-05 13:15 | -10.28922 | 115.70640 | 19836 ft | 377 kts | 294° |
| 2026-05-05 13:15 | -10.27841 | 115.68215 | 19641 ft | 376 kts | 294° |
| 2026-05-05 13:15 | -10.26761 | 115.65795 | 19449 ft | 375 kts | 294° |
| 2026-05-05 13:15 | -10.25684 | 115.63380 | 19248 ft | 374 kts | 294° |
| 2026-05-05 13:16 | -10.24609 | 115.60972 | 19064 ft | 373 kts | 294° |
| 2026-05-05 13:16 | -10.23551 | 115.58603 | 18865 ft | 371 kts | 293° |
| 2026-05-05 13:16 | -10.22482 | 115.56209 | 18673 ft | 370 kts | 293° |
| 2026-05-05 13:16 | -10.21417 | 115.53824 | 18484 ft | 369 kts | 293° |
| 2026-05-05 13:17 | -10.20372 | 115.51485 | 18298 ft | 368 kts | 293° |
| 2026-05-05 13:17 | -10.19317 | 115.49123 | 18086 ft | 367 kts | 293° |
| 2026-05-05 13:17 | -10.18263 | 115.46766 | 17884 ft | 366 kts | 293° |
| 2026-05-05 13:17 | -10.17209 | 115.44409 | 17688 ft | 365 kts | 293° |
| 2026-05-05 13:18 | -10.16158 | 115.42057 | 17499 ft | 365 kts | 293° |
| 2026-05-05 13:18 | -10.15120 | 115.39734 | 17303 ft | 365 kts | 293° |
| 2026-05-05 13:18 | -10.14072 | 115.37393 | 17121 ft | 364 kts | 292° |
| 2026-05-05 13:18 | -10.13022 | 115.35048 | 16934 ft | 364 kts | 293° |
| 2026-05-05 13:19 | -10.11977 | 115.32712 | 16751 ft | 363 kts | 293° |
| 2026-05-05 13:19 | -10.10931 | 115.30373 | 16561 ft | 363 kts | 293° |
| 2026-05-05 13:19 | -10.09888 | 115.28044 | 16372 ft | 362 kts | 293° |
| 2026-05-05 13:19 | -10.08843 | 115.25713 | 16190 ft | 362 kts | 293° |
| 2026-05-05 13:20 | -10.07801 | 115.23385 | 16000 ft | 362 kts | 292° |
| 2026-05-05 13:20 | -10.06774 | 115.21092 | 15811 ft | 361 kts | 293° |
| 2026-05-05 13:20 | -10.05736 | 115.18775 | 15625 ft | 361 kts | 293° |
| 2026-05-05 13:20 | -10.04694 | 115.16451 | 15439 ft | 360 kts | 292° |
| 2026-05-05 13:21 | -10.03655 | 115.14134 | 15246 ft | 360 kts | 292° |
| 2026-05-05 13:21 | -10.02620 | 115.11825 | 15068 ft | 360 kts | 292° |
| 2026-05-05 13:21 | -10.01579 | 115.09505 | 14876 ft | 359 kts | 292° |
| 2026-05-05 13:21 | -10.00454 | 115.07241 | 14659 ft | 360 kts | 303° |
| 2026-05-05 13:22 | -9.98741 | 115.05397 | 14486 ft | 362 kts | 322° |
| 2026-05-05 13:22 | -9.96531 | 115.04230 | 14314 ft | 365 kts | 342° |
| 2026-05-05 13:22 | -9.94041 | 115.03698 | 14148 ft | 366 kts | 349° |
| 2026-05-05 13:22 | -9.91532 | 115.03254 | 13953 ft | 366 kts | 350° |
| 2026-05-05 13:23 | -9.89023 | 115.02825 | 13757 ft | 365 kts | 350° |
| 2026-05-05 13:23 | -9.86508 | 115.02406 | 13546 ft | 364 kts | 351° |
| 2026-05-05 13:23 | -9.84006 | 115.01993 | 13346 ft | 363 kts | 351° |
| 2026-05-05 13:23 | -9.81518 | 115.01585 | 13157 ft | 362 kts | 351° |
| 2026-05-05 13:24 | -9.79032 | 115.01178 | 12969 ft | 361 kts | 351° |
| 2026-05-05 13:24 | -9.76585 | 115.00778 | 12777 ft | 360 kts | 351° |
| 2026-05-05 13:24 | -9.74912 | 115.00504 | 12656 ft | 359 kts | 351° |
| 2026-05-05 13:24 | -9.71654 | 114.99972 | 12413 ft | 358 kts | 351° |
| 2026-05-05 13:25 | -9.69988 | 114.99700 | 12287 ft | 357 kts | 351° |
| 2026-05-05 13:25 | -9.67534 | 114.99299 | 12102 ft | 356 kts | 351° |
| 2026-05-05 13:25 | -9.65120 | 114.98903 | 11929 ft | 355 kts | 352° |
| 2026-05-05 13:25 | -9.62684 | 114.98505 | 11780 ft | 354 kts | 352° |
| 2026-05-05 13:26 | -9.60246 | 114.98107 | 11608 ft | 353 kts | 352° |
| 2026-05-05 13:26 | -9.57818 | 114.97711 | 11435 ft | 352 kts | 352° |
| 2026-05-05 13:26 | -9.55406 | 114.97317 | 11243 ft | 349 kts | 352° |
| 2026-05-05 13:26 | -9.53036 | 114.96930 | 11064 ft | 341 kts | 352° |
| 2026-05-05 13:27 | -9.50717 | 114.96551 | 10891 ft | 332 kts | 352° |
| 2026-05-05 13:27 | -9.48488 | 114.96187 | 10725 ft | 324 kts | 352° |
| 2026-05-05 13:27 | -9.46277 | 114.95826 | 10560 ft | 316 kts | 352° |
| 2026-05-05 13:27 | -9.44137 | 114.95477 | 10402 ft | 308 kts | 352° |
| 2026-05-05 13:28 | -9.42064 | 114.95138 | 10242 ft | 300 kts | 353° |
| 2026-05-05 13:28 | -9.40020 | 114.94805 | 10098 ft | 296 kts | 353° |
| 2026-05-05 13:28 | -9.37974 | 114.94583 | 9841 ft | 297 kts | 0° |
| 2026-05-05 13:28 | -9.35894 | 114.94506 | 9425 ft | 299 kts | 0° |
| 2026-05-05 13:29 | -9.33807 | 114.94416 | 9053 ft | 300 kts | 359° |
| 2026-05-05 13:29 | -9.31719 | 114.94316 | 8696 ft | 299 kts | 359° |
| 2026-05-05 13:29 | -9.29667 | 114.94212 | 8333 ft | 299 kts | 359° |
| 2026-05-05 13:29 | -9.27586 | 114.94102 | 7971 ft | 299 kts | 359° |
| 2026-05-05 13:30 | -9.25495 | 114.93991 | 7611 ft | 299 kts | 359° |
| 2026-05-05 13:30 | -9.23419 | 114.93879 | 7248 ft | 299 kts | 359° |
| 2026-05-05 13:30 | -9.21332 | 114.93767 | 6886 ft | 299 kts | 359° |
| 2026-05-05 13:30 | -9.19259 | 114.93655 | 6512 ft | 295 kts | 359° |
| 2026-05-05 13:31 | -9.17259 | 114.93548 | 6162 ft | 286 kts | 359° |
| 2026-05-05 13:31 | -9.15302 | 114.93443 | 5809 ft | 278 kts | 359° |
| 2026-05-05 13:31 | -9.13396 | 114.93340 | 5471 ft | 269 kts | 359° |
| 2026-05-05 13:31 | -9.11534 | 114.93239 | 5144 ft | 267 kts | 359° |
| 2026-05-05 13:32 | -9.09684 | 114.93140 | 4821 ft | 266 kts | 359° |
| 2026-05-05 13:32 | -9.07838 | 114.93041 | 4484 ft | 265 kts | 359° |
| 2026-05-05 13:32 | -9.05988 | 114.92941 | 4172 ft | 267 kts | 360° |
| 2026-05-05 13:32 | -9.04160 | 114.92837 | 3964 ft | 263 kts | 359° |
| 2026-05-05 13:33 | -9.02338 | 114.92724 | 3902 ft | 262 kts | 359° |
| 2026-05-05 13:33 | -9.00512 | 114.92612 | 3836 ft | 262 kts | 360° |
| 2026-05-05 13:33 | -8.98685 | 114.92500 | 3779 ft | 263 kts | 359° |
| 2026-05-05 13:33 | -8.96880 | 114.92390 | 3715 ft | 260 kts | 360° |
| 2026-05-05 13:34 | -8.95103 | 114.92280 | 3658 ft | 249 kts | 360° |
| 2026-05-05 13:34 | -8.93405 | 114.92177 | 3597 ft | 239 kts | 360° |
| 2026-05-05 13:34 | -8.91779 | 114.92078 | 3530 ft | 228 kts | 0° |
| 2026-05-05 13:34 | -8.90202 | 114.91982 | 3468 ft | 227 kts | 360° |
| 2026-05-05 13:35 | -8.88625 | 114.91887 | 3428 ft | 227 kts | 360° |
| 2026-05-05 13:35 | -8.87065 | 114.91793 | 3377 ft | 226 kts | 359° |
| 2026-05-05 13:35 | -8.85488 | 114.91696 | 3314 ft | 227 kts | 359° |
| 2026-05-05 13:35 | -8.83908 | 114.91601 | 3264 ft | 228 kts | 359° |
| 2026-05-05 13:36 | -8.82310 | 114.91504 | 3217 ft | 229 kts | 0° |
| 2026-05-05 13:36 | -8.80726 | 114.91407 | 3157 ft | 228 kts | 359° |
| 2026-05-05 13:36 | -8.79144 | 114.91312 | 3046 ft | 227 kts | 0° |
| 2026-05-05 13:36 | -8.77640 | 114.91537 | 2980 ft | 220 kts | 28° |
| 2026-05-05 13:37 | -8.76480 | 114.92474 | 2971 ft | 212 kts | 59° |
| 2026-05-05 13:37 | -8.75924 | 114.93835 | 2998 ft | 210 kts | 79° |
| 2026-05-05 13:37 | -8.75721 | 114.95298 | 3009 ft | 210 kts | 86° |
| 2026-05-05 13:37 | -8.75623 | 114.96764 | 3000 ft | 212 kts | 88° |
| 2026-05-05 13:38 | -8.75555 | 114.98250 | 3012 ft | 211 kts | 89° |
| 2026-05-05 13:38 | -8.75496 | 114.99739 | 2873 ft | 212 kts | 89° |
| 2026-05-05 13:38 | -8.75438 | 115.01228 | 2627 ft | 211 kts | 89° |
| 2026-05-05 13:38 | -8.75381 | 115.02716 | 2370 ft | 211 kts | 89° |
| 2026-05-05 13:39 | -8.75325 | 115.04180 | 2116 ft | 211 kts | 88° |
| 2026-05-05 13:39 | -8.75268 | 115.05666 | 1841 ft | 212 kts | 89° |
| 2026-05-05 13:39 | -8.75211 | 115.07150 | 1569 ft | 211 kts | 89° |
| 2026-05-05 13:39 | -8.75155 | 115.08638 | 1307 ft | 212 kts | 89° |
| 2026-05-05 13:40 | -8.75097 | 115.10134 | 1015 ft | 213 kts | 88° |
| 2026-05-05 13:40 | -8.75039 | 115.11620 | 778 ft | 207 kts | 89° |
| 2026-05-05 13:40 | -8.75023 | 115.12041 | 711 ft | 201 kts | 89° |
| 2026-05-05 13:41 | -8.74979 | 115.13308 | 569 ft | 160 kts | 90° |
| 2026-05-05 13:41 | -8.74933 | 115.14357 | 558 ft | 146 kts | 89° |
| 2026-05-05 13:41 | -8.74890 | 115.15393 | 41 ft | 146 kts | 90° |
| 2026-05-05 13:42 | -8.74861 | 115.16255 | 22 ft | 94 kts | 88° |
| 2026-05-05 13:42 | -8.74839 | 115.16744 | 23 ft | 60 kts | 86° |
| 2026-05-05 13:42 | -8.74827 | 115.17097 | 23 ft | 5 kts | 88° |
| 2026-05-05 13:42 | -8.74823 | 115.17178 | 22 ft | 15 kts | 87° |
| 2026-05-05 13:43 | -8.74803 | 115.17288 | 23 ft | 17 kts | 54° |
| 2026-05-05 13:43 | -8.74717 | 115.17312 | 25 ft | 0 kts | 356° |
| 2026-05-05 13:43 | -8.74706 | 115.17310 | 23 ft | 3 kts | 352° |
| 2026-05-05 13:43 | -8.74678 | 115.17298 | 23 ft | 7 kts | 323° |
| 2026-05-05 13:44 | -8.74652 | 115.17229 | 24 ft | 8 kts | 269° |
| 2026-05-05 13:44 | -8.74651 | 115.17163 | 23 ft | 0 kts | 270° |
| 2026-05-05 13:44 | -8.74653 | 115.17123 | 23 ft | 12 kts | 266° |
| 2026-05-05 13:44 | -8.74656 | 115.17088 | 24 ft | 6 kts | 270° |
| 2026-05-05 13:45 | -8.74646 | 115.17071 | 23 ft | 3 kts | 332° |
| 2026-05-05 13:45 | -8.74577 | 115.17064 | 26 ft | 16 kts | 358° |
| 2026-05-05 13:45 | -8.74527 | 115.17062 | 26 ft | 0 kts | 358° |